Augsburg, Illinois
Current Conditions -  °F | °C
As of 5:15 AM on Saturday 01 Nov 2014 (Local Time) from KSLO Reporting Station
Clear Clear  
Wind Chill: 25°   Ceiling: Unl
Heat Index: 33°   Visibility: 10mi
Dew Point: 24°   Wind: 10mph
Humidity: 70%   Direction: 340°NNW
Pressure: 30.37"   Gusts: NA
Location:  38.8463°N, 89.0894°W
Report Text: KSLO 011015Z AUTO 34009KT 10SM CLR 01/M04 A3037 RMK AO2 T00071042
Loading
Personal Weather Stations






























Interactive Weather Map
Tropical Storm Tracking
New forecast layout! Learn more

10-Day Weather Forecast

Advertisements
Track Severe Weather on mobile